sensor_id;sensor_type;location;lat;lon;timestamp;temperature;humidity
8105;DHT22;4095;48.942;9.104;2023-02-01T00:01:51;7.80;99.40
8105;DHT22;4095;48.942;9.104;2023-02-01T00:04:17;7.80;99.20
8105;DHT22;4095;48.942;9.104;2023-02-01T00:06:42;7.80;99.20
8105;DHT22;4095;48.942;9.104;2023-02-01T00:09:08;7.80;99.20
8105;DHT22;4095;48.942;9.104;2023-02-01T00:11:34;7.80;99.20
8105;DHT22;4095;48.942;9.104;2023-02-01T00:14:00;7.90;99.20
8105;DHT22;4095;48.942;9.104;2023-02-01T00:16:27;7.80;99.10
8105;DHT22;4095;48.942;9.104;2023-02-01T00:19:05;7.80;99.20
8105;DHT22;4095;48.942;9.104;2023-02-01T00:21:32;7.80;99.20
8105;DHT22;4095;48.942;9.104;2023-02-01T00:23:58;7.80;99.30
8105;DHT22;4095;48.942;9.104;2023-02-01T00:26:30;7.90;99.30
8105;DHT22;4095;48.942;9.104;2023-02-01T00:28:56;7.90;99.20
8105;DHT22;4095;48.942;9.104;2023-02-01T00:31:22;7.90;99.30
8105;DHT22;4095;48.942;9.104;2023-02-01T00:33:48;7.90;99.30
8105;DHT22;4095;48.942;9.104;2023-02-01T00:36:14;7.90;99.40
8105;DHT22;4095;48.942;9.104;2023-02-01T00:38:40;7.90;99.30
8105;DHT22;4095;48.942;9.104;2023-02-01T00:41:09;7.90;99.40
8105;DHT22;4095;48.942;9.104;2023-02-01T00:43:35;7.90;99.40
8105;DHT22;4095;48.942;9.104;2023-02-01T00:46:01;7.90;99.40
8105;DHT22;4095;48.942;9.104;2023-02-01T00:48:27;7.80;99.50
8105;DHT22;4095;48.942;9.104;2023-02-01T00:50:53;7.80;99.60
8105;DHT22;4095;48.942;9.104;2023-02-01T00:53:19;7.70;99.60
8105;DHT22;4095;48.942;9.104;2023-02-01T00:55:46;7.70;99.60
8105;DHT22;4095;48.942;9.104;2023-02-01T00:58:11;7.70;99.70
8105;DHT22;4095;48.942;9.104;2023-02-01T01:00:37;7.80;99.60
8105;DHT22;4095;48.942;9.104;2023-02-01T01:03:03;7.70;99.50
8105;DHT22;4095;48.942;9.104;2023-02-01T01:05:44;7.80;99.60
8105;DHT22;4095;48.942;9.104;2023-02-01T01:08:09;7.80;99.50
8105;DHT22;4095;48.942;9.104;2023-02-01T01:10:35;7.70;99.50
8105;DHT22;4095;48.942;9.104;2023-02-01T01:13:01;7.80;99.50
8105;DHT22;4095;48.942;9.104;2023-02-01T01:15:26;7.70;99.50
8105;DHT22;4095;48.942;9.104;2023-02-01T01:17:52;7.80;99.60
8105;DHT22;4095;48.942;9.104;2023-02-01T01:20:17;7.80;99.50
8105;DHT22;4095;48.942;9.104;2023-02-01T01:22:47;7.80;99.50
8105;DHT22;4095;48.942;9.104;2023-02-01T01:25:16;7.80;99.50
8105;DHT22;4095;48.942;9.104;2023-02-01T01:27:41;7.80;99.50
8105;DHT22;4095;48.942;9.104;2023-02-01T01:30:07;7.80;99.40
8105;DHT22;4095;48.942;9.104;2023-02-01T01:32:39;7.90;99.50
8105;DHT22;4095;48.942;9.104;2023-02-01T01:35:14;7.90;99.50
8105;DHT22;4095;48.942;9.104;2023-02-01T01:37:43;7.90;99.30
8105;DHT22;4095;48.942;9.104;2023-02-01T01:40:11;7.90;99.30
8105;DHT22;4095;48.942;9.104;2023-02-01T01:42:38;7.90;99.30
8105;DHT22;4095;48.942;9.104;2023-02-01T01:47:55;7.90;99.30
8105;DHT22;4095;48.942;9.104;2023-02-01T01:50:29;8.00;99.30
8105;DHT22;4095;48.942;9.104;2023-02-01T01:52:58;8.00;99.30
8105;DHT22;4095;48.942;9.104;2023-02-01T01:55:27;8.10;99.30
8105;DHT22;4095;48.942;9.104;2023-02-01T01:58:00;8.10;99.20
8105;DHT22;4095;48.942;9.104;2023-02-01T02:00:26;8.00;99.30
8105;DHT22;4095;48.942;9.104;2023-02-01T02:03:00;8.00;99.30
8105;DHT22;4095;48.942;9.104;2023-02-01T02:05:29;8.10;99.30
8105;DHT22;4095;48.942;9.104;2023-02-01T02:07:58;8.10;99.30
8105;DHT22;4095;48.942;9.104;2023-02-01T02:10:26;8.10;99.30
8105;DHT22;4095;48.942;9.104;2023-02-01T02:13:13;8.10;99.30
8105;DHT22;4095;48.942;9.104;2023-02-01T02:15:45;8.10;99.30
8105;DHT22;4095;48.942;9.104;2023-02-01T02:18:21;8.10;99.40
8105;DHT22;4095;48.942;9.104;2023-02-01T02:21:12;8.00;99.30
8105;DHT22;4095;48.942;9.104;2023-02-01T02:42:33;8.10;99.30
8105;DHT22;4095;48.942;9.104;2023-02-01T02:45:34;8.00;99.30
8105;DHT22;4095;48.942;9.104;2023-02-01T02:48:40;8.10;99.30
8105;DHT22;4095;48.942;9.104;2023-02-01T02:51:32;8.10;99.20
8105;DHT22;4095;48.942;9.104;2023-02-01T02:54:42;8.00;99.20
8105;DHT22;4095;48.942;9.104;2023-02-01T02:57:32;8.10;99.20
8105;DHT22;4095;48.942;9.104;2023-02-01T03:00:21;8.00;99.00
8105;DHT22;4095;48.942;9.104;2023-02-01T03:03:07;8.00;99.10
8105;DHT22;4095;48.942;9.104;2023-02-01T03:05:51;8.00;98.90
8105;DHT22;4095;48.942;9.104;2023-02-01T03:08:27;8.00;98.90
8105;DHT22;4095;48.942;9.104;2023-02-01T03:11:00;7.90;98.80
8105;DHT22;4095;48.942;9.104;2023-02-01T03:18:49;7.70;98.70
8105;DHT22;4095;48.942;9.104;2023-02-01T03:21:21;7.70;98.90
8105;DHT22;4095;48.942;9.104;2023-02-01T03:23:49;7.70;98.90
8105;DHT22;4095;48.942;9.104;2023-02-01T03:26:17;7.70;98.90
8105;DHT22;4095;48.942;9.104;2023-02-01T03:28:51;7.60;98.90
8105;DHT22;4095;48.942;9.104;2023-02-01T03:31:18;7.70;99.00
8105;DHT22;4095;48.942;9.104;2023-02-01T03:33:44;7.70;99.00
8105;DHT22;4095;48.942;9.104;2023-02-01T03:36:32;7.70;99.00
8105;DHT22;4095;48.942;9.104;2023-02-01T03:39:30;7.70;99.10
8105;DHT22;4095;48.942;9.104;2023-02-01T03:42:00;7.70;99.10
8105;DHT22;4095;48.942;9.104;2023-02-01T03:44:32;7.70;99.10
8105;DHT22;4095;48.942;9.104;2023-02-01T03:49:44;7.70;98.90
8105;DHT22;4095;48.942;9.104;2023-02-01T03:52:30;7.60;99.10
8105;DHT22;4095;48.942;9.104;2023-02-01T03:54:57;7.70;99.10
8105;DHT22;4095;48.942;9.104;2023-02-01T03:57:28;7.80;99.00
8105;DHT22;4095;48.942;9.104;2023-02-01T04:00:07;7.80;99.00
8105;DHT22;4095;48.942;9.104;2023-02-01T04:02:33;7.80;99.00
8105;DHT22;4095;48.942;9.104;2023-02-01T04:04:59;7.80;99.00
8105;DHT22;4095;48.942;9.104;2023-02-01T04:07:25;7.70;99.10
8105;DHT22;4095;48.942;9.104;2023-02-01T04:09:50;7.80;99.20
8105;DHT22;4095;48.942;9.104;2023-02-01T04:12:16;7.80;99.20
8105;DHT22;4095;48.942;9.104;2023-02-01T04:14:41;7.80;99.20
8105;DHT22;4095;48.942;9.104;2023-02-01T04:17:07;7.90;99.20
8105;DHT22;4095;48.942;9.104;2023-02-01T04:19:32;7.90;99.00
8105;DHT22;4095;48.942;9.104;2023-02-01T04:21:58;8.00;98.90
8105;DHT22;4095;48.942;9.104;2023-02-01T04:24:24;8.00;98.80
8105;DHT22;4095;48.942;9.104;2023-02-01T04:26:49;8.00;98.80
8105;DHT22;4095;48.942;9.104;2023-02-01T04:29:15;8.10;98.80
8105;DHT22;4095;48.942;9.104;2023-02-01T04:31:40;8.10;98.70
8105;DHT22;4095;48.942;9.104;2023-02-01T04:34:06;8.10;98.60
8105;DHT22;4095;48.942;9.104;2023-02-01T04:36:31;8.20;98.60
8105;DHT22;4095;48.942;9.104;2023-02-01T04:38:57;8.20;98.50
8105;DHT22;4095;48.942;9.104;2023-02-01T04:41:23;8.20;98.40
8105;DHT22;4095;48.942;9.104;2023-02-01T04:43:49;8.20;98.50
8105;DHT22;4095;48.942;9.104;2023-02-01T04:46:16;8.20;98.50
8105;DHT22;4095;48.942;9.104;2023-02-01T04:48:42;8.20;98.50
8105;DHT22;4095;48.942;9.104;2023-02-01T04:51:08;8.20;98.50
8105;DHT22;4095;48.942;9.104;2023-02-01T04:53:33;8.10;98.50
8105;DHT22;4095;48.942;9.104;2023-02-01T04:55:59;8.20;98.50
8105;DHT22;4095;48.942;9.104;2023-02-01T04:58:25;8.10;98.40
8105;DHT22;4095;48.942;9.104;2023-02-01T05:00:50;8.10;98.50
8105;DHT22;4095;48.942;9.104;2023-02-01T05:03:17;8.10;98.60
8105;DHT22;4095;48.942;9.104;2023-02-01T05:05:42;8.10;98.50
8105;DHT22;4095;48.942;9.104;2023-02-01T05:08:08;8.10;98.40
8105;DHT22;4095;48.942;9.104;2023-02-01T05:10:34;8.10;98.50
8105;DHT22;4095;48.942;9.104;2023-02-01T05:12:59;8.10;98.50
8105;DHT22;4095;48.942;9.104;2023-02-01T05:15:43;8.10;98.50
8105;DHT22;4095;48.942;9.104;2023-02-01T05:18:11;8.10;98.60
8105;DHT22;4095;48.942;9.104;2023-02-01T05:20:37;8.10;98.70
8105;DHT22;4095;48.942;9.104;2023-02-01T05:23:03;8.00;99.20
8105;DHT22;4095;48.942;9.104;2023-02-01T05:25:28;8.00;99.60
8105;DHT22;4095;48.942;9.104;2023-02-01T05:27:54;7.90;99.80
8105;DHT22;4095;48.942;9.104;2023-02-01T05:30:19;7.90;99.90
8105;DHT22;4095;48.942;9.104;2023-02-01T05:32:45;7.80;99.90
8105;DHT22;4095;48.942;9.104;2023-02-01T05:35:10;7.70;99.90
8105;DHT22;4095;48.942;9.104;2023-02-01T05:37:36;7.70;99.90
8105;DHT22;4095;48.942;9.104;2023-02-01T05:40:02;7.70;99.90
8105;DHT22;4095;48.942;9.104;2023-02-01T05:42:27;7.80;99.90
8105;DHT22;4095;48.942;9.104;2023-02-01T05:44:53;7.80;99.90
8105;DHT22;4095;48.942;9.104;2023-02-01T05:47:18;7.80;99.90
8105;DHT22;4095;48.942;9.104;2023-02-01T05:49:45;7.80;99.70
8105;DHT22;4095;48.942;9.104;2023-02-01T05:52:11;7.80;99.60
8105;DHT22;4095;48.942;9.104;2023-02-01T05:54:37;7.90;99.70
8105;DHT22;4095;48.942;9.104;2023-02-01T05:57:02;7.90;99.70
8105;DHT22;4095;48.942;9.104;2023-02-01T05:59:28;7.90;99.40
8105;DHT22;4095;48.942;9.104;2023-02-01T06:01:54;7.90;99.30
8105;DHT22;4095;48.942;9.104;2023-02-01T06:04:20;7.90;99.40
8105;DHT22;4095;48.942;9.104;2023-02-01T06:06:45;8.00;99.40
8105;DHT22;4095;48.942;9.104;2023-02-01T06:09:11;8.00;99.30
8105;DHT22;4095;48.942;9.104;2023-02-01T06:11:37;8.00;99.50
8105;DHT22;4095;48.942;9.104;2023-02-01T06:14:02;8.00;99.40
8105;DHT22;4095;48.942;9.104;2023-02-01T06:16:28;8.00;99.30
8105;DHT22;4095;48.942;9.104;2023-02-01T06:18:53;8.00;99.40
8105;DHT22;4095;48.942;9.104;2023-02-01T06:21:19;8.00;99.50
8105;DHT22;4095;48.942;9.104;2023-02-01T06:23:52;8.00;99.60
8105;DHT22;4095;48.942;9.104;2023-02-01T06:26:18;7.90;99.60
8105;DHT22;4095;48.942;9.104;2023-02-01T06:28:44;8.00;99.80
8105;DHT22;4095;48.942;9.104;2023-02-01T06:31:10;8.00;99.80
8105;DHT22;4095;48.942;9.104;2023-02-01T06:33:36;8.00;99.80
8105;DHT22;4095;48.942;9.104;2023-02-01T06:36:04;8.00;99.80
8105;DHT22;4095;48.942;9.104;2023-02-01T06:38:30;8.00;99.70
8105;DHT22;4095;48.942;9.104;2023-02-01T06:40:57;8.00;99.80
8105;DHT22;4095;48.942;9.104;2023-02-01T06:43:25;8.00;99.80
8105;DHT22;4095;48.942;9.104;2023-02-01T06:45:51;8.10;99.70
8105;DHT22;4095;48.942;9.104;2023-02-01T06:48:16;8.00;99.60
8105;DHT22;4095;48.942;9.104;2023-02-01T06:50:42;8.10;99.80
8105;DHT22;4095;48.942;9.104;2023-02-01T06:53:08;8.10;99.60
8105;DHT22;4095;48.942;9.104;2023-02-01T06:55:33;8.10;99.70
8105;DHT22;4095;48.942;9.104;2023-02-01T06:57:59;8.10;99.80
8105;DHT22;4095;48.942;9.104;2023-02-01T07:00:26;8.10;99.90
8105;DHT22;4095;48.942;9.104;2023-02-01T07:02:52;8.10;99.90
8105;DHT22;4095;48.942;9.104;2023-02-01T07:05:17;8.10;99.90
8105;DHT22;4095;48.942;9.104;2023-02-01T07:07:43;8.10;99.90
8105;DHT22;4095;48.942;9.104;2023-02-01T07:10:09;8.10;99.90
8105;DHT22;4095;48.942;9.104;2023-02-01T07:12:35;8.10;99.90
8105;DHT22;4095;48.942;9.104;2023-02-01T07:15:02;8.10;99.90
8105;DHT22;4095;48.942;9.104;2023-02-01T07:17:28;8.10;99.90
8105;DHT22;4095;48.942;9.104;2023-02-01T07:19:55;8.10;99.90
8105;DHT22;4095;48.942;9.104;2023-02-01T07:22:21;8.00;99.90
8105;DHT22;4095;48.942;9.104;2023-02-01T07:24:46;8.00;99.90
8105;DHT22;4095;48.942;9.104;2023-02-01T07:27:12;8.00;99.90
8105;DHT22;4095;48.942;9.104;2023-02-01T07:29:38;8.00;99.90
8105;DHT22;4095;48.942;9.104;2023-02-01T07:32:04;8.00;99.90
8105;DHT22;4095;48.942;9.104;2023-02-01T07:34:29;8.00;99.90
8105;DHT22;4095;48.942;9.104;2023-02-01T07:36:56;8.00;99.90
8105;DHT22;4095;48.942;9.104;2023-02-01T07:39:22;8.00;99.90
8105;DHT22;4095;48.942;9.104;2023-02-01T07:41:47;8.00;99.90
8105;DHT22;4095;48.942;9.104;2023-02-01T07:44:13;8.00;99.90
8105;DHT22;4095;48.942;9.104;2023-02-01T07:46:39;8.00;99.90
8105;DHT22;4095;48.942;9.104;2023-02-01T07:49:05;8.10;99.90
8105;DHT22;4095;48.942;9.104;2023-02-01T07:51:30;8.10;99.90
8105;DHT22;4095;48.942;9.104;2023-02-01T07:53:56;8.10;99.90
8105;DHT22;4095;48.942;9.104;2023-02-01T07:56:22;8.10;99.90
8105;DHT22;4095;48.942;9.104;2023-02-01T07:58:52;8.10;99.90
8105;DHT22;4095;48.942;9.104;2023-02-01T08:01:20;8.10;99.90
8105;DHT22;4095;48.942;9.104;2023-02-01T08:03:48;8.10;99.90
8105;DHT22;4095;48.942;9.104;2023-02-01T08:06:14;8.10;99.90
8105;DHT22;4095;48.942;9.104;2023-02-01T08:08:40;8.00;99.90
8105;DHT22;4095;48.942;9.104;2023-02-01T08:11:06;8.10;99.90
8105;DHT22;4095;48.942;9.104;2023-02-01T08:13:35;8.10;99.90
8105;DHT22;4095;48.942;9.104;2023-02-01T08:16:04;8.10;99.90
8105;DHT22;4095;48.942;9.104;2023-02-01T08:18:30;8.10;99.90
8105;DHT22;4095;48.942;9.104;2023-02-01T08:20:56;8.20;99.90
8105;DHT22;4095;48.942;9.104;2023-02-01T08:23:22;8.20;99.90
8105;DHT22;4095;48.942;9.104;2023-02-01T08:25:48;8.30;99.90
8105;DHT22;4095;48.942;9.104;2023-02-01T08:28:14;8.40;99.80
8105;DHT22;4095;48.942;9.104;2023-02-01T08:30:40;8.40;99.60
8105;DHT22;4095;48.942;9.104;2023-02-01T08:33:07;8.50;99.50
8105;DHT22;4095;48.942;9.104;2023-02-01T08:35:38;8.40;99.40
8105;DHT22;4095;48.942;9.104;2023-02-01T08:38:04;8.50;99.30
8105;DHT22;4095;48.942;9.104;2023-02-01T08:40:30;8.50;99.20
8105;DHT22;4095;48.942;9.104;2023-02-01T08:42:56;8.50;99.30
8105;DHT22;4095;48.942;9.104;2023-02-01T08:45:27;8.50;99.10
8105;DHT22;4095;48.942;9.104;2023-02-01T08:47:55;8.50;99.20
8105;DHT22;4095;48.942;9.104;2023-02-01T08:50:22;8.50;99.00
8105;DHT22;4095;48.942;9.104;2023-02-01T08:52:48;8.50;99.10
8105;DHT22;4095;48.942;9.104;2023-02-01T08:55:14;8.50;99.10
8105;DHT22;4095;48.942;9.104;2023-02-01T08:57:40;8.40;99.00
8105;DHT22;4095;48.942;9.104;2023-02-01T09:00:08;8.40;98.90
8105;DHT22;4095;48.942;9.104;2023-02-01T09:02:35;8.40;99.00
8105;DHT22;4095;48.942;9.104;2023-02-01T09:05:01;8.40;98.90
8105;DHT22;4095;48.942;9.104;2023-02-01T09:07:27;8.50;99.00
8105;DHT22;4095;48.942;9.104;2023-02-01T09:09:52;8.50;99.00
8105;DHT22;4095;48.942;9.104;2023-02-01T09:12:20;8.50;99.00
8105;DHT22;4095;48.942;9.104;2023-02-01T09:14:46;8.50;99.00
8105;DHT22;4095;48.942;9.104;2023-02-01T09:17:11;8.50;99.20
8105;DHT22;4095;48.942;9.104;2023-02-01T09:19:39;8.50;99.10
8105;DHT22;4095;48.942;9.104;2023-02-01T09:22:04;8.60;99.10
8105;DHT22;4095;48.942;9.104;2023-02-01T09:24:30;8.60;99.10
8105;DHT22;4095;48.942;9.104;2023-02-01T09:26:56;8.60;99.00
8105;DHT22;4095;48.942;9.104;2023-02-01T09:29:21;8.60;98.90
8105;DHT22;4095;48.942;9.104;2023-02-01T09:31:47;8.60;99.00
8105;DHT22;4095;48.942;9.104;2023-02-01T09:34:12;8.60;99.00
8105;DHT22;4095;48.942;9.104;2023-02-01T09:36:38;8.70;99.00
8105;DHT22;4095;48.942;9.104;2023-02-01T09:39:04;8.60;98.80
8105;DHT22;4095;48.942;9.104;2023-02-01T09:46:40;8.80;98.70
8105;DHT22;4095;48.942;9.104;2023-02-01T09:49:19;8.80;98.50
8105;DHT22;4095;48.942;9.104;2023-02-01T09:51:48;8.90;98.20
8105;DHT22;4095;48.942;9.104;2023-02-01T09:54:18;8.90;97.80
8105;DHT22;4095;48.942;9.104;2023-02-01T09:59:47;9.10;97.40
8105;DHT22;4095;48.942;9.104;2023-02-01T10:02:25;9.10;97.20
8105;DHT22;4095;48.942;9.104;2023-02-01T10:04:54;9.20;96.90
8105;DHT22;4095;48.942;9.104;2023-02-01T10:10:10;9.40;96.60
8105;DHT22;4095;48.942;9.104;2023-02-01T10:27:08;10.30;94.70
8105;DHT22;4095;48.942;9.104;2023-02-01T10:29:42;10.10;95.00
8105;DHT22;4095;48.942;9.104;2023-02-01T10:35:39;9.70;95.70
8105;DHT22;4095;48.942;9.104;2023-02-01T10:38:24;9.50;96.00
8105;DHT22;4095;48.942;9.104;2023-02-01T10:40:53;9.30;96.10
8105;DHT22;4095;48.942;9.104;2023-02-01T10:43:20;9.30;96.40
8105;DHT22;4095;48.942;9.104;2023-02-01T10:45:46;9.20;96.10
8105;DHT22;4095;48.942;9.104;2023-02-01T10:48:12;9.10;96.30
8105;DHT22;4095;48.942;9.104;2023-02-01T10:50:51;9.10;96.30
8105;DHT22;4095;48.942;9.104;2023-02-01T10:53:25;9.10;96.30
8105;DHT22;4095;48.942;9.104;2023-02-01T10:55:55;9.00;96.20
8105;DHT22;4095;48.942;9.104;2023-02-01T10:58:30;9.00;96.20
8105;DHT22;4095;48.942;9.104;2023-02-01T11:01:06;9.10;96.50
8105;DHT22;4095;48.942;9.104;2023-02-01T11:05:58;9.30;96.00
8105;DHT22;4095;48.942;9.104;2023-02-01T11:08:24;9.30;96.00
8105;DHT22;4095;48.942;9.104;2023-02-01T11:11:00;9.20;96.10
8105;DHT22;4095;48.942;9.104;2023-02-01T11:13:57;9.20;96.30
8105;DHT22;4095;48.942;9.104;2023-02-01T11:16:34;9.20;96.30
8105;DHT22;4095;48.942;9.104;2023-02-01T11:19:00;9.30;96.40
8105;DHT22;4095;48.942;9.104;2023-02-01T11:21:26;9.30;95.80
8105;DHT22;4095;48.942;9.104;2023-02-01T11:23:51;9.30;95.80
8105;DHT22;4095;48.942;9.104;2023-02-01T11:26:21;9.30;95.60
8105;DHT22;4095;48.942;9.104;2023-02-01T11:29:17;9.40;96.00
8105;DHT22;4095;48.942;9.104;2023-02-01T11:31:45;9.30;95.40
8105;DHT22;4095;48.942;9.104;2023-02-01T11:34:19;9.30;95.50
8105;DHT22;4095;48.942;9.104;2023-02-01T11:36:48;9.20;95.50
8105;DHT22;4095;48.942;9.104;2023-02-01T11:44:42;9.40;95.00
8105;DHT22;4095;48.942;9.104;2023-02-01T11:47:30;9.50;95.00
8105;DHT22;4095;48.942;9.104;2023-02-01T11:50:12;9.60;95.00
8105;DHT22;4095;48.942;9.104;2023-02-01T11:55:48;9.50;94.20
8105;DHT22;4095;48.942;9.104;2023-02-01T12:01:23;9.40;93.90
8105;DHT22;4095;48.942;9.104;2023-02-01T12:22:48;9.30;94.50
8105;DHT22;4095;48.942;9.104;2023-02-01T12:36:31;9.30;94.80
8105;DHT22;4095;48.942;9.104;2023-02-01T12:39:21;9.30;94.80
8105;DHT22;4095;48.942;9.104;2023-02-01T12:44:46;9.40;94.60
8105;DHT22;4095;48.942;9.104;2023-02-01T12:47:29;9.40;94.90
8105;DHT22;4095;48.942;9.104;2023-02-01T12:52:48;9.30;94.70
8105;DHT22;4095;48.942;9.104;2023-02-01T12:55:35;9.40;94.80
8105;DHT22;4095;48.942;9.104;2023-02-01T12:58:21;9.50;94.70
8105;DHT22;4095;48.942;9.104;2023-02-01T13:04:18;9.50;94.70
8105;DHT22;4095;48.942;9.104;2023-02-01T13:06:50;9.60;94.80
8105;DHT22;4095;48.942;9.104;2023-02-01T13:09:29;9.50;94.90
8105;DHT22;4095;48.942;9.104;2023-02-01T13:15:16;9.50;95.40
8105;DHT22;4095;48.942;9.104;2023-02-01T13:17:44;9.40;95.10
8105;DHT22;4095;48.942;9.104;2023-02-01T13:20:31;9.30;95.30
8105;DHT22;4095;48.942;9.104;2023-02-01T13:23:08;9.30;95.60
8105;DHT22;4095;48.942;9.104;2023-02-01T13:25:48;9.20;95.60
8105;DHT22;4095;48.942;9.104;2023-02-01T13:44:41;9.00;95.80
8105;DHT22;4095;48.942;9.104;2023-02-01T13:47:35;9.00;95.70
8105;DHT22;4095;48.942;9.104;2023-02-01T13:50:25;9.00;95.50
8105;DHT22;4095;48.942;9.104;2023-02-01T13:52:58;9.00;95.40
8105;DHT22;4095;48.942;9.104;2023-02-01T13:55:28;9.10;95.50
8105;DHT22;4095;48.942;9.104;2023-02-01T13:58:05;9.20;95.40
8105;DHT22;4095;48.942;9.104;2023-02-01T14:00:36;9.30;95.10
8105;DHT22;4095;48.942;9.104;2023-02-01T14:03:21;9.10;95.10
8105;DHT22;4095;48.942;9.104;2023-02-01T14:08:41;9.20;95.50
8105;DHT22;4095;48.942;9.104;2023-02-01T14:11:31;9.20;95.40
8105;DHT22;4095;48.942;9.104;2023-02-01T14:19:27;9.10;95.30
8105;DHT22;4095;48.942;9.104;2023-02-01T14:21:55;9.10;95.50
8105;DHT22;4095;48.942;9.104;2023-02-01T14:26:56;8.90;95.50
8105;DHT22;4095;48.942;9.104;2023-02-01T14:29:36;8.90;95.70
8105;DHT22;4095;48.942;9.104;2023-02-01T14:32:17;8.90;95.70
8105;DHT22;4095;48.942;9.104;2023-02-01T14:55:49;9.00;95.20
8105;DHT22;4095;48.942;9.104;2023-02-01T15:01:24;8.80;95.30
8105;DHT22;4095;48.942;9.104;2023-02-01T15:04:08;8.80;95.30
8105;DHT22;4095;48.942;9.104;2023-02-01T15:06:57;8.90;95.40
8105;DHT22;4095;48.942;9.104;2023-02-01T15:12:04;8.90;95.10
8105;DHT22;4095;48.942;9.104;2023-02-01T15:14:42;8.90;95.00
8105;DHT22;4095;48.942;9.104;2023-02-01T15:17:22;8.90;94.80
8105;DHT22;4095;48.942;9.104;2023-02-01T15:19:55;8.90;94.50
8105;DHT22;4095;48.942;9.104;2023-02-01T15:22:21;8.90;94.50
8105;DHT22;4095;48.942;9.104;2023-02-01T15:24:52;8.90;94.30
8105;DHT22;4095;48.942;9.104;2023-02-01T15:27:19;8.90;94.10
8105;DHT22;4095;48.942;9.104;2023-02-01T15:29:45;8.90;94.30
8105;DHT22;4095;48.942;9.104;2023-02-01T15:32:37;8.90;94.30
8105;DHT22;4095;48.942;9.104;2023-02-01T15:35:04;8.90;94.30
8105;DHT22;4095;48.942;9.104;2023-02-01T15:37:31;8.90;94.40
8105;DHT22;4095;48.942;9.104;2023-02-01T15:40:20;8.90;94.40
8105;DHT22;4095;48.942;9.104;2023-02-01T15:42:54;8.90;94.40
8105;DHT22;4095;48.942;9.104;2023-02-01T15:45:29;8.90;94.60
8105;DHT22;4095;48.942;9.104;2023-02-01T15:47:58;8.90;94.50
8105;DHT22;4095;48.942;9.104;2023-02-01T15:50:24;8.90;94.70
8105;DHT22;4095;48.942;9.104;2023-02-01T15:52:52;8.90;94.60
8105;DHT22;4095;48.942;9.104;2023-02-01T15:55:37;8.90;94.70
8105;DHT22;4095;48.942;9.104;2023-02-01T15:58:08;8.90;94.70
8105;DHT22;4095;48.942;9.104;2023-02-01T16:00:47;8.80;94.80
8105;DHT22;4095;48.942;9.104;2023-02-01T16:03:44;8.80;94.80
8105;DHT22;4095;48.942;9.104;2023-02-01T16:06:11;8.80;94.90
8105;DHT22;4095;48.942;9.104;2023-02-01T16:08:48;8.90;94.80
8105;DHT22;4095;48.942;9.104;2023-02-01T16:28:29;8.80;94.80
8105;DHT22;4095;48.942;9.104;2023-02-01T16:34:44;8.80;94.70
8105;DHT22;4095;48.942;9.104;2023-02-01T16:40:23;8.80;94.50
8105;DHT22;4095;48.942;9.104;2023-02-01T16:42:53;8.80;94.60
8105;DHT22;4095;48.942;9.104;2023-02-01T16:46:00;8.80;94.50
8105;DHT22;4095;48.942;9.104;2023-02-01T16:49:18;8.80;94.50
8105;DHT22;4095;48.942;9.104;2023-02-01T16:52:17;8.80;94.40
8105;DHT22;4095;48.942;9.104;2023-02-01T16:58:25;8.70;94.50
8105;DHT22;4095;48.942;9.104;2023-02-01T17:01:01;8.80;94.50
8105;DHT22;4095;48.942;9.104;2023-02-01T17:04:14;8.70;94.60
8105;DHT22;4095;48.942;9.104;2023-02-01T17:07:00;8.70;94.60
8105;DHT22;4095;48.942;9.104;2023-02-01T17:13:31;8.70;94.60
8105;DHT22;4095;48.942;9.104;2023-02-01T17:19:55;8.70;94.60
8105;DHT22;4095;48.942;9.104;2023-02-01T17:22:21;8.70;94.60
8105;DHT22;4095;48.942;9.104;2023-02-01T17:24:47;8.70;94.60
8105;DHT22;4095;48.942;9.104;2023-02-01T17:27:14;8.70;94.60
8105;DHT22;4095;48.942;9.104;2023-02-01T17:29:39;8.70;94.70
8105;DHT22;4095;48.942;9.104;2023-02-01T17:32:23;8.80;94.50
8105;DHT22;4095;48.942;9.104;2023-02-01T17:35:27;8.80;94.30
8105;DHT22;4095;48.942;9.104;2023-02-01T17:38:32;8.90;94.40
8105;DHT22;4095;48.942;9.104;2023-02-01T17:41:25;8.80;94.30
8105;DHT22;4095;48.942;9.104;2023-02-01T17:43:52;8.80;94.40
8105;DHT22;4095;48.942;9.104;2023-02-01T17:49:54;8.80;94.40
8105;DHT22;4095;48.942;9.104;2023-02-01T17:52:37;8.70;94.30
8105;DHT22;4095;48.942;9.104;2023-02-01T17:55:22;8.70;94.40
8105;DHT22;4095;48.942;9.104;2023-02-01T17:58:29;8.70;94.40
8105;DHT22;4095;48.942;9.104;2023-02-01T18:01:52;8.80;94.40
8105;DHT22;4095;48.942;9.104;2023-02-01T18:04:19;8.80;94.40
8105;DHT22;4095;48.942;9.104;2023-02-01T18:07:15;8.80;94.60
8105;DHT22;4095;48.942;9.104;2023-02-01T18:09:51;8.80;94.60
8105;DHT22;4095;48.942;9.104;2023-02-01T18:12:21;8.80;94.60
8105;DHT22;4095;48.942;9.104;2023-02-01T18:14:47;8.80;94.70
8105;DHT22;4095;48.942;9.104;2023-02-01T18:17:13;8.80;94.70
8105;DHT22;4095;48.942;9.104;2023-02-01T18:19:39;8.80;94.80
8105;DHT22;4095;48.942;9.104;2023-02-01T18:22:05;8.70;94.70
8105;DHT22;4095;48.942;9.104;2023-02-01T18:24:34;8.70;94.80
8105;DHT22;4095;48.942;9.104;2023-02-01T18:27:01;8.70;94.80
8105;DHT22;4095;48.942;9.104;2023-02-01T18:29:27;8.70;94.90
8105;DHT22;4095;48.942;9.104;2023-02-01T18:31:52;8.70;94.90
8105;DHT22;4095;48.942;9.104;2023-02-01T18:34:23;8.70;94.90
8105;DHT22;4095;48.942;9.104;2023-02-01T18:36:50;8.70;95.00
8105;DHT22;4095;48.942;9.104;2023-02-01T18:39:16;8.70;95.00
8105;DHT22;4095;48.942;9.104;2023-02-01T18:41:44;8.70;94.80
8105;DHT22;4095;48.942;9.104;2023-02-01T18:44:13;8.70;94.90
8105;DHT22;4095;48.942;9.104;2023-02-01T18:46:40;8.70;94.90
8105;DHT22;4095;48.942;9.104;2023-02-01T18:49:06;8.80;94.90
8105;DHT22;4095;48.942;9.104;2023-02-01T18:51:32;8.70;94.70
8105;DHT22;4095;48.942;9.104;2023-02-01T18:53:58;8.70;94.80
8105;DHT22;4095;48.942;9.104;2023-02-01T18:56:24;8.70;94.60
8105;DHT22;4095;48.942;9.104;2023-02-01T18:58:49;8.70;94.50
8105;DHT22;4095;48.942;9.104;2023-02-01T19:01:18;8.70;94.40
8105;DHT22;4095;48.942;9.104;2023-02-01T19:03:45;8.70;94.40
8105;DHT22;4095;48.942;9.104;2023-02-01T19:06:11;8.70;94.40
8105;DHT22;4095;48.942;9.104;2023-02-01T19:08:37;8.70;94.40
8105;DHT22;4095;48.942;9.104;2023-02-01T19:11:07;8.70;94.30
8105;DHT22;4095;48.942;9.104;2023-02-01T19:13:36;8.80;94.20
8105;DHT22;4095;48.942;9.104;2023-02-01T19:16:06;8.70;94.20
8105;DHT22;4095;48.942;9.104;2023-02-01T19:18:32;8.80;94.20
8105;DHT22;4095;48.942;9.104;2023-02-01T19:21:03;8.70;94.10
8105;DHT22;4095;48.942;9.104;2023-02-01T19:23:29;8.80;94.30
8105;DHT22;4095;48.942;9.104;2023-02-01T19:25:54;8.80;94.10
8105;DHT22;4095;48.942;9.104;2023-02-01T19:28:20;8.70;94.10
8105;DHT22;4095;48.942;9.104;2023-02-01T19:30:46;8.80;94.20
8105;DHT22;4095;48.942;9.104;2023-02-01T19:33:11;8.70;94.20
8105;DHT22;4095;48.942;9.104;2023-02-01T19:35:37;8.70;94.30
8105;DHT22;4095;48.942;9.104;2023-02-01T19:38:03;8.70;94.30
8105;DHT22;4095;48.942;9.104;2023-02-01T19:40:29;8.70;94.30
8105;DHT22;4095;48.942;9.104;2023-02-01T19:42:55;8.70;94.30
8105;DHT22;4095;48.942;9.104;2023-02-01T19:45:21;8.70;94.30
8105;DHT22;4095;48.942;9.104;2023-02-01T19:47:46;8.80;94.40
8105;DHT22;4095;48.942;9.104;2023-02-01T19:50:17;8.80;94.40
8105;DHT22;4095;48.942;9.104;2023-02-01T19:52:44;8.80;94.50
8105;DHT22;4095;48.942;9.104;2023-02-01T19:55:10;8.80;94.60
8105;DHT22;4095;48.942;9.104;2023-02-01T19:57:36;8.80;94.60
8105;DHT22;4095;48.942;9.104;2023-02-01T20:00:03;8.80;94.60
8105;DHT22;4095;48.942;9.104;2023-02-01T20:02:29;8.80;94.60
8105;DHT22;4095;48.942;9.104;2023-02-01T20:04:55;8.80;94.60
8105;DHT22;4095;48.942;9.104;2023-02-01T20:07:21;8.80;94.50
8105;DHT22;4095;48.942;9.104;2023-02-01T20:09:47;8.80;94.40